sensor_id;sensor_type;location;lat;lon;timestamp;P1;durP1;ratioP1;P2;durP2;ratioP2
62941;SDS011;49042;47.318;19.874;2022-08-01T00:00:51;2.10;;;1.48;;
62941;SDS011;49042;47.318;19.874;2022-08-01T00:03:53;1.73;;;1.42;;
62941;SDS011;49042;47.318;19.874;2022-08-01T00:06:55;3.05;;;1.17;;
62941;SDS011;49042;47.318;19.874;2022-08-01T00:09:56;2.50;;;1.40;;
62941;SDS011;49042;47.318;19.874;2022-08-01T00:12:58;3.03;;;1.60;;
62941;SDS011;49042;47.318;19.874;2022-08-01T00:16:00;2.12;;;1.70;;
62941;SDS011;49042;47.318;19.874;2022-08-01T00:19:02;2.47;;;1.58;;
62941;SDS011;49042;47.318;19.874;2022-08-01T00:22:04;4.60;;;1.98;;
62941;SDS011;49042;47.318;19.874;2022-08-01T00:25:06;1.83;;;1.50;;
62941;SDS011;49042;47.318;19.874;2022-08-01T00:28:09;9.30;;;1.60;;
62941;SDS011;49042;47.318;19.874;2022-08-01T00:31:11;2.15;;;1.62;;
62941;SDS011;49042;47.318;19.874;2022-08-01T00:34:13;8.23;;;1.60;;
62941;SDS011;49042;47.318;19.874;2022-08-01T00:37:15;1.80;;;1.52;;
62941;SDS011;49042;47.318;19.874;2022-08-01T00:40:17;6.82;;;1.62;;
62941;SDS011;49042;47.318;19.874;2022-08-01T00:43:19;3.20;;;1.62;;
62941;SDS011;49042;47.318;19.874;2022-08-01T00:46:21;2.10;;;1.50;;
62941;SDS011;49042;47.318;19.874;2022-08-01T00:49:22;6.00;;;1.70;;
62941;SDS011;49042;47.318;19.874;2022-08-01T00:52:24;3.00;;;1.52;;
62941;SDS011;49042;47.318;19.874;2022-08-01T00:55:27;1.67;;;1.58;;
62941;SDS011;49042;47.318;19.874;2022-08-01T00:58:29;1.75;;;1.60;;
62941;SDS011;49042;47.318;19.874;2022-08-01T01:01:33;1.85;;;1.50;;
62941;SDS011;49042;47.318;19.874;2022-08-01T01:04:40;2.47;;;1.60;;
62941;SDS011;49042;47.318;19.874;2022-08-01T01:11:25;1.60;;;1.50;;
62941;SDS011;49042;47.318;19.874;2022-08-01T01:14:32;3.85;;;1.90;;
62941;SDS011;49042;47.318;19.874;2022-08-01T01:17:46;1.70;;;1.52;;
62941;SDS011;49042;47.318;19.874;2022-08-01T01:24:32;5.20;;;1.45;;
62941;SDS011;49042;47.318;19.874;2022-08-01T01:31:11;2.40;;;1.70;;
62941;SDS011;49042;47.318;19.874;2022-08-01T01:34:15;2.55;;;1.70;;
62941;SDS011;49042;47.318;19.874;2022-08-01T01:37:20;4.53;;;2.08;;
62941;SDS011;49042;47.318;19.874;2022-08-01T01:40:24;1.73;;;1.60;;
62941;SDS011;49042;47.318;19.874;2022-08-01T01:43:27;6.53;;;1.90;;
62941;SDS011;49042;47.318;19.874;2022-08-01T01:46:34;2.80;;;1.73;;
62941;SDS011;49042;47.318;19.874;2022-08-01T01:49:37;15.70;;;2.12;;
62941;SDS011;49042;47.318;19.874;2022-08-01T01:52:41;2.60;;;1.90;;
62941;SDS011;49042;47.318;19.874;2022-08-01T01:55:45;5.90;;;2.50;;
62941;SDS011;49042;47.318;19.874;2022-08-01T01:58:52;2.65;;;1.95;;
62941;SDS011;49042;47.318;19.874;2022-08-01T02:01:58;3.07;;;2.43;;
62941;SDS011;49042;47.318;19.874;2022-08-01T02:05:09;2.28;;;2.08;;
62941;SDS011;49042;47.318;19.874;2022-08-01T02:08:14;1.87;;;1.77;;
62941;SDS011;49042;47.318;19.874;2022-08-01T02:11:18;3.22;;;1.87;;
62941;SDS011;49042;47.318;19.874;2022-08-01T02:14:21;6.25;;;2.00;;
62941;SDS011;49042;47.318;19.874;2022-08-01T02:17:24;6.87;;;1.80;;
62941;SDS011;49042;47.318;19.874;2022-08-01T02:20:29;2.17;;;1.73;;
62941;SDS011;49042;47.318;19.874;2022-08-01T02:23:32;2.72;;;2.08;;
62941;SDS011;49042;47.318;19.874;2022-08-01T02:26:38;3.87;;;2.05;;
62941;SDS011;49042;47.318;19.874;2022-08-01T02:29:53;3.85;;;2.10;;
62941;SDS011;49042;47.318;19.874;2022-08-01T02:33:03;2.90;;;1.95;;
62941;SDS011;49042;47.318;19.874;2022-08-01T02:36:16;2.45;;;1.73;;
62941;SDS011;49042;47.318;19.874;2022-08-01T02:39:33;2.50;;;2.10;;
62941;SDS011;49042;47.318;19.874;2022-08-01T02:42:38;4.20;;;2.00;;
62941;SDS011;49042;47.318;19.874;2022-08-01T02:45:45;3.95;;;2.15;;
62941;SDS011;49042;47.318;19.874;2022-08-01T02:48:52;5.55;;;2.40;;
62941;SDS011;49042;47.318;19.874;2022-08-01T02:51:57;2.90;;;2.45;;
62941;SDS011;49042;47.318;19.874;2022-08-01T02:55:00;2.45;;;2.08;;
62941;SDS011;49042;47.318;19.874;2022-08-01T02:58:02;2.33;;;2.10;;
62941;SDS011;49042;47.318;19.874;2022-08-01T03:01:06;5.87;;;2.15;;
62941;SDS011;49042;47.318;19.874;2022-08-01T03:04:10;3.08;;;2.15;;
62941;SDS011;49042;47.318;19.874;2022-08-01T03:07:13;3.45;;;2.37;;
62941;SDS011;49042;47.318;19.874;2022-08-01T03:10:19;2.58;;;2.25;;
62941;SDS011;49042;47.318;19.874;2022-08-01T03:13:22;3.53;;;2.58;;
62941;SDS011;49042;47.318;19.874;2022-08-01T03:16:26;3.28;;;2.30;;
62941;SDS011;49042;47.318;19.874;2022-08-01T03:19:29;2.55;;;2.17;;
62941;SDS011;49042;47.318;19.874;2022-08-01T03:22:33;3.00;;;2.40;;
62941;SDS011;49042;47.318;19.874;2022-08-01T03:25:38;2.85;;;2.20;;
62941;SDS011;49042;47.318;19.874;2022-08-01T03:28:42;3.12;;;2.42;;
62941;SDS011;49042;47.318;19.874;2022-08-01T03:31:47;3.08;;;2.45;;
62941;SDS011;49042;47.318;19.874;2022-08-01T03:34:50;4.22;;;2.35;;
62941;SDS011;49042;47.318;19.874;2022-08-01T03:37:53;3.67;;;2.50;;
62941;SDS011;49042;47.318;19.874;2022-08-01T03:41:20;3.20;;;2.47;;
62941;SDS011;49042;47.318;19.874;2022-08-01T03:44:28;3.80;;;2.50;;
62941;SDS011;49042;47.318;19.874;2022-08-01T03:47:34;5.60;;;2.45;;
62941;SDS011;49042;47.318;19.874;2022-08-01T03:50:48;3.37;;;2.37;;
62941;SDS011;49042;47.318;19.874;2022-08-01T03:53:52;2.40;;;2.10;;
62941;SDS011;49042;47.318;19.874;2022-08-01T03:56:56;3.45;;;2.37;;
62941;SDS011;49042;47.318;19.874;2022-08-01T03:59:59;5.87;;;2.42;;
62941;SDS011;49042;47.318;19.874;2022-08-01T04:03:02;3.92;;;2.90;;
62941;SDS011;49042;47.318;19.874;2022-08-01T04:06:05;5.70;;;2.92;;
62941;SDS011;49042;47.318;19.874;2022-08-01T04:09:09;3.17;;;2.45;;
62941;SDS011;49042;47.318;19.874;2022-08-01T04:12:14;2.47;;;2.22;;
62941;SDS011;49042;47.318;19.874;2022-08-01T04:15:16;3.37;;;2.35;;
62941;SDS011;49042;47.318;19.874;2022-08-01T04:18:18;3.80;;;2.50;;
62941;SDS011;49042;47.318;19.874;2022-08-01T04:21:22;3.58;;;2.67;;
62941;SDS011;49042;47.318;19.874;2022-08-01T04:24:26;4.28;;;2.50;;
62941;SDS011;49042;47.318;19.874;2022-08-01T04:27:32;8.48;;;6.87;;
62941;SDS011;49042;47.318;19.874;2022-08-01T04:30:52;10.77;;;7.60;;
62941;SDS011;49042;47.318;19.874;2022-08-01T04:34:02;10.57;;;3.53;;
62941;SDS011;49042;47.318;19.874;2022-08-01T04:37:10;5.03;;;2.70;;
62941;SDS011;49042;47.318;19.874;2022-08-01T04:40:13;3.10;;;2.75;;
62941;SDS011;49042;47.318;19.874;2022-08-01T04:43:17;3.55;;;2.70;;
62941;SDS011;49042;47.318;19.874;2022-08-01T04:46:20;4.10;;;2.55;;
62941;SDS011;49042;47.318;19.874;2022-08-01T04:49:23;5.82;;;2.90;;
62941;SDS011;49042;47.318;19.874;2022-08-01T04:52:32;4.65;;;2.80;;
62941;SDS011;49042;47.318;19.874;2022-08-01T04:55:35;7.68;;;2.85;;
62941;SDS011;49042;47.318;19.874;2022-08-01T04:58:36;4.60;;;2.80;;
62941;SDS011;49042;47.318;19.874;2022-08-01T05:01:38;2.80;;;2.50;;
62941;SDS011;49042;47.318;19.874;2022-08-01T05:04:41;2.70;;;2.40;;
62941;SDS011;49042;47.318;19.874;2022-08-01T05:07:44;4.85;;;2.80;;
62941;SDS011;49042;47.318;19.874;2022-08-01T05:10:46;4.07;;;2.35;;
62941;SDS011;49042;47.318;19.874;2022-08-01T05:13:48;8.25;;;3.45;;
62941;SDS011;49042;47.318;19.874;2022-08-01T05:16:49;4.15;;;3.15;;
62941;SDS011;49042;47.318;19.874;2022-08-01T05:19:51;5.72;;;3.22;;
62941;SDS011;49042;47.318;19.874;2022-08-01T05:22:53;2.72;;;2.30;;
62941;SDS011;49042;47.318;19.874;2022-08-01T05:25:55;4.15;;;2.87;;
62941;SDS011;49042;47.318;19.874;2022-08-01T05:28:59;4.50;;;2.80;;
62941;SDS011;49042;47.318;19.874;2022-08-01T05:32:01;4.12;;;2.50;;
62941;SDS011;49042;47.318;19.874;2022-08-01T05:35:04;5.15;;;2.22;;
62941;SDS011;49042;47.318;19.874;2022-08-01T05:38:07;5.22;;;2.30;;
62941;SDS011;49042;47.318;19.874;2022-08-01T05:41:14;2.70;;;2.08;;
62941;SDS011;49042;47.318;19.874;2022-08-01T05:44:16;3.50;;;2.42;;
62941;SDS011;49042;47.318;19.874;2022-08-01T05:47:18;5.10;;;2.20;;
62941;SDS011;49042;47.318;19.874;2022-08-01T05:50:19;12.37;;;2.20;;
62941;SDS011;49042;47.318;19.874;2022-08-01T05:53:21;2.67;;;1.85;;
62941;SDS011;49042;47.318;19.874;2022-08-01T05:56:23;6.20;;;2.30;;
62941;SDS011;49042;47.318;19.874;2022-08-01T05:59:30;2.05;;;1.60;;
62941;SDS011;49042;47.318;19.874;2022-08-01T06:02:32;5.43;;;1.80;;
62941;SDS011;49042;47.318;19.874;2022-08-01T06:05:34;1.77;;;1.58;;
62941;SDS011;49042;47.318;19.874;2022-08-01T06:08:36;3.90;;;2.03;;
62941;SDS011;49042;47.318;19.874;2022-08-01T06:11:55;3.78;;;1.70;;
62941;SDS011;49042;47.318;19.874;2022-08-01T06:14:57;2.55;;;1.73;;
62941;SDS011;49042;47.318;19.874;2022-08-01T06:17:59;2.62;;;1.58;;
62941;SDS011;49042;47.318;19.874;2022-08-01T06:21:01;2.70;;;1.50;;
62941;SDS011;49042;47.318;19.874;2022-08-01T06:24:03;4.15;;;1.50;;
62941;SDS011;49042;47.318;19.874;2022-08-01T06:27:05;2.47;;;1.85;;
62941;SDS011;49042;47.318;19.874;2022-08-01T06:30:22;4.03;;;1.80;;
62941;SDS011;49042;47.318;19.874;2022-08-01T06:33:25;5.15;;;1.60;;
62941;SDS011;49042;47.318;19.874;2022-08-01T06:36:28;1.83;;;1.55;;
62941;SDS011;49042;47.318;19.874;2022-08-01T06:39:29;3.22;;;1.55;;
62941;SDS011;49042;47.318;19.874;2022-08-01T06:42:31;2.20;;;1.50;;
62941;SDS011;49042;47.318;19.874;2022-08-01T06:45:37;2.65;;;1.48;;
62941;SDS011;49042;47.318;19.874;2022-08-01T06:48:41;5.20;;;1.52;;
62941;SDS011;49042;47.318;19.874;2022-08-01T06:51:43;2.90;;;1.67;;
62941;SDS011;49042;47.318;19.874;2022-08-01T06:54:45;5.47;;;1.58;;
62941;SDS011;49042;47.318;19.874;2022-08-01T06:57:51;2.37;;;1.70;;
62941;SDS011;49042;47.318;19.874;2022-08-01T07:00:53;5.75;;;1.50;;
62941;SDS011;49042;47.318;19.874;2022-08-01T07:03:58;3.37;;;1.60;;
62941;SDS011;49042;47.318;19.874;2022-08-01T07:06:59;2.03;;;1.80;;
62941;SDS011;49042;47.318;19.874;2022-08-01T07:10:02;2.95;;;1.70;;
62941;SDS011;49042;47.318;19.874;2022-08-01T07:13:04;4.10;;;1.80;;
62941;SDS011;49042;47.318;19.874;2022-08-01T07:16:06;2.47;;;1.70;;
62941;SDS011;49042;47.318;19.874;2022-08-01T07:19:08;4.80;;;1.50;;
62941;SDS011;49042;47.318;19.874;2022-08-01T07:22:10;5.53;;;1.70;;
62941;SDS011;49042;47.318;19.874;2022-08-01T07:25:11;4.62;;;1.65;;
62941;SDS011;49042;47.318;19.874;2022-08-01T07:28:13;2.47;;;1.40;;
62941;SDS011;49042;47.318;19.874;2022-08-01T07:31:16;2.28;;;1.45;;
62941;SDS011;49042;47.318;19.874;2022-08-01T07:34:18;3.90;;;1.60;;
62941;SDS011;49042;47.318;19.874;2022-08-01T07:37:20;2.87;;;1.67;;
62941;SDS011;49042;47.318;19.874;2022-08-01T07:40:42;2.03;;;1.60;;
62941;SDS011;49042;47.318;19.874;2022-08-01T07:43:45;3.70;;;1.35;;
62941;SDS011;49042;47.318;19.874;2022-08-01T07:46:59;3.17;;;1.60;;
62941;SDS011;49042;47.318;19.874;2022-08-01T07:50:01;2.72;;;1.60;;
62941;SDS011;49042;47.318;19.874;2022-08-01T07:53:04;3.05;;;1.55;;
62941;SDS011;49042;47.318;19.874;2022-08-01T07:56:06;3.40;;;1.60;;
62941;SDS011;49042;47.318;19.874;2022-08-01T07:59:08;7.55;;;1.50;;
62941;SDS011;49042;47.318;19.874;2022-08-01T08:02:10;5.68;;;1.42;;
62941;SDS011;49042;47.318;19.874;2022-08-01T08:05:12;2.12;;;1.60;;
62941;SDS011;49042;47.318;19.874;2022-08-01T08:08:14;6.35;;;1.80;;
62941;SDS011;49042;47.318;19.874;2022-08-01T08:11:17;3.35;;;1.60;;
62941;SDS011;49042;47.318;19.874;2022-08-01T08:14:18;1.35;;;1.25;;
62941;SDS011;49042;47.318;19.874;2022-08-01T08:17:21;5.20;;;1.50;;
62941;SDS011;49042;47.318;19.874;2022-08-01T08:20:22;1.77;;;1.50;;
62941;SDS011;49042;47.318;19.874;2022-08-01T08:23:28;1.87;;;1.33;;
62941;SDS011;49042;47.318;19.874;2022-08-01T08:26:49;4.03;;;1.52;;
62941;SDS011;49042;47.318;19.874;2022-08-01T08:29:57;2.30;;;1.25;;
62941;SDS011;49042;47.318;19.874;2022-08-01T08:32:59;4.25;;;1.50;;
62941;SDS011;49042;47.318;19.874;2022-08-01T08:36:00;2.05;;;1.20;;
62941;SDS011;49042;47.318;19.874;2022-08-01T08:39:03;1.33;;;1.20;;
62941;SDS011;49042;47.318;19.874;2022-08-01T08:42:06;2.30;;;1.20;;
62941;SDS011;49042;47.318;19.874;2022-08-01T08:45:09;3.42;;;1.33;;
62941;SDS011;49042;47.318;19.874;2022-08-01T08:48:12;3.50;;;1.17;;
62941;SDS011;49042;47.318;19.874;2022-08-01T08:51:16;3.58;;;1.10;;
62941;SDS011;49042;47.318;19.874;2022-08-01T08:54:21;1.92;;;1.33;;
62941;SDS011;49042;47.318;19.874;2022-08-01T08:57:31;2.95;;;1.33;;
62941;SDS011;49042;47.318;19.874;2022-08-01T09:00:33;2.10;;;0.95;;
62941;SDS011;49042;47.318;19.874;2022-08-01T09:03:37;1.83;;;1.20;;
62941;SDS011;49042;47.318;19.874;2022-08-01T09:06:40;1.62;;;1.20;;
62941;SDS011;49042;47.318;19.874;2022-08-01T09:09:42;1.73;;;1.15;;
62941;SDS011;49042;47.318;19.874;2022-08-01T09:16:15;4.15;;;1.40;;
62941;SDS011;49042;47.318;19.874;2022-08-01T09:19:19;2.95;;;1.20;;
62941;SDS011;49042;47.318;19.874;2022-08-01T09:22:41;2.40;;;1.42;;
62941;SDS011;49042;47.318;19.874;2022-08-01T09:25:51;4.07;;;1.70;;
62941;SDS011;49042;47.318;19.874;2022-08-01T09:28:57;4.65;;;2.10;;
62941;SDS011;49042;47.318;19.874;2022-08-01T09:32:01;1.52;;;1.00;;
62941;SDS011;49042;47.318;19.874;2022-08-01T09:35:27;3.17;;;0.98;;
62941;SDS011;49042;47.318;19.874;2022-08-01T09:38:43;1.77;;;1.10;;
62941;SDS011;49042;47.318;19.874;2022-08-01T09:41:52;1.33;;;0.90;;
62941;SDS011;49042;47.318;19.874;2022-08-01T09:44:56;2.70;;;1.05;;
62941;SDS011;49042;47.318;19.874;2022-08-01T09:48:05;2.67;;;1.27;;
62941;SDS011;49042;47.318;19.874;2022-08-01T09:51:11;3.62;;;1.00;;
62941;SDS011;49042;47.318;19.874;2022-08-01T09:54:34;1.50;;;1.00;;
62941;SDS011;49042;47.318;19.874;2022-08-01T09:57:36;4.80;;;1.00;;
62941;SDS011;49042;47.318;19.874;2022-08-01T10:00:38;4.62;;;1.23;;
62941;SDS011;49042;47.318;19.874;2022-08-01T10:03:46;3.05;;;1.77;;
62941;SDS011;49042;47.318;19.874;2022-08-01T10:06:49;2.28;;;1.10;;
62941;SDS011;49042;47.318;19.874;2022-08-01T10:09:56;3.10;;;1.00;;
62941;SDS011;49042;47.318;19.874;2022-08-01T10:13:11;1.00;;;0.90;;
62941;SDS011;49042;47.318;19.874;2022-08-01T10:16:14;1.90;;;1.00;;
62941;SDS011;49042;47.318;19.874;2022-08-01T10:19:17;1.60;;;1.10;;
62941;SDS011;49042;47.318;19.874;2022-08-01T10:22:23;3.15;;;1.10;;
62941;SDS011;49042;47.318;19.874;2022-08-01T10:25:27;4.20;;;0.95;;
62941;SDS011;49042;47.318;19.874;2022-08-01T10:28:44;3.03;;;1.05;;
62941;SDS011;49042;47.318;19.874;2022-08-01T10:31:49;1.77;;;1.12;;
62941;SDS011;49042;47.318;19.874;2022-08-01T10:34:53;1.10;;;0.98;;
62941;SDS011;49042;47.318;19.874;2022-08-01T10:37:56;4.28;;;1.10;;
62941;SDS011;49042;47.318;19.874;2022-08-01T10:40:59;3.80;;;1.20;;
62941;SDS011;49042;47.318;19.874;2022-08-01T10:44:07;3.60;;;1.20;;
62941;SDS011;49042;47.318;19.874;2022-08-01T10:47:10;3.28;;;1.20;;
62941;SDS011;49042;47.318;19.874;2022-08-01T10:50:34;4.72;;;1.30;;
62941;SDS011;49042;47.318;19.874;2022-08-01T10:53:52;1.25;;;1.10;;
62941;SDS011;49042;47.318;19.874;2022-08-01T10:56:57;2.62;;;1.40;;
62941;SDS011;49042;47.318;19.874;2022-08-01T11:00:02;2.65;;;1.10;;
62941;SDS011;49042;47.318;19.874;2022-08-01T11:03:06;1.98;;;1.10;;
62941;SDS011;49042;47.318;19.874;2022-08-01T11:06:17;4.10;;;1.20;;
62941;SDS011;49042;47.318;19.874;2022-08-01T11:12:41;1.50;;;1.20;;
62941;SDS011;49042;47.318;19.874;2022-08-01T11:18:51;2.23;;;1.30;;
62941;SDS011;49042;47.318;19.874;2022-08-01T11:24:59;1.67;;;1.30;;
62941;SDS011;49042;47.318;19.874;2022-08-01T11:31:31;3.53;;;1.40;;
62941;SDS011;49042;47.318;19.874;2022-08-01T11:34:54;1.77;;;1.50;;
62941;SDS011;49042;47.318;19.874;2022-08-01T11:37:56;1.52;;;1.27;;
62941;SDS011;49042;47.318;19.874;2022-08-01T11:41:30;2.90;;;1.50;;
62941;SDS011;49042;47.318;19.874;2022-08-01T11:44:48;2.03;;;1.42;;
62941;SDS011;49042;47.318;19.874;2022-08-01T11:47:51;1.25;;;1.02;;
62941;SDS011;49042;47.318;19.874;2022-08-01T11:50:54;1.70;;;1.25;;
62941;SDS011;49042;47.318;19.874;2022-08-01T11:53:57;2.25;;;1.50;;
62941;SDS011;49042;47.318;19.874;2022-08-01T11:57:12;1.45;;;1.10;;
62941;SDS011;49042;47.318;19.874;2022-08-01T12:00:17;1.40;;;1.00;;
62941;SDS011;49042;47.318;19.874;2022-08-01T12:03:23;3.90;;;1.23;;
62941;SDS011;49042;47.318;19.874;2022-08-01T12:06:34;0.95;;;0.90;;
62941;SDS011;49042;47.318;19.874;2022-08-01T12:09:36;1.30;;;1.10;;
62941;SDS011;49042;47.318;19.874;2022-08-01T12:12:42;1.27;;;1.10;;
62941;SDS011;49042;47.318;19.874;2022-08-01T12:15:45;2.47;;;1.20;;
62941;SDS011;49042;47.318;19.874;2022-08-01T12:18:48;1.48;;;1.08;;
62941;SDS011;49042;47.318;19.874;2022-08-01T12:22:06;1.52;;;1.25;;
62941;SDS011;49042;47.318;19.874;2022-08-01T12:25:09;1.30;;;1.05;;
62941;SDS011;49042;47.318;19.874;2022-08-01T12:28:13;1.42;;;1.10;;
62941;SDS011;49042;47.318;19.874;2022-08-01T12:31:15;5.60;;;1.23;;
62941;SDS011;49042;47.318;19.874;2022-08-01T12:34:27;1.87;;;1.10;;
62941;SDS011;49042;47.318;19.874;2022-08-01T12:37:34;2.47;;;1.30;;
62941;SDS011;49042;47.318;19.874;2022-08-01T12:40:49;1.17;;;0.93;;
62941;SDS011;49042;47.318;19.874;2022-08-01T12:43:53;2.60;;;0.90;;
62941;SDS011;49042;47.318;19.874;2022-08-01T12:46:56;2.47;;;1.33;;
62941;SDS011;49042;47.318;19.874;2022-08-01T12:49:59;1.87;;;1.20;;
62941;SDS011;49042;47.318;19.874;2022-08-01T12:53:01;3.85;;;1.15;;
62941;SDS011;49042;47.318;19.874;2022-08-01T12:56:03;2.95;;;1.27;;
62941;SDS011;49042;47.318;19.874;2022-08-01T12:59:24;1.10;;;1.00;;
62941;SDS011;49042;47.318;19.874;2022-08-01T13:02:34;1.75;;;0.98;;
62941;SDS011;49042;47.318;19.874;2022-08-01T13:05:44;5.30;;;1.00;;
62941;SDS011;49042;47.318;19.874;2022-08-01T13:08:45;1.40;;;1.00;;
62941;SDS011;49042;47.318;19.874;2022-08-01T13:11:47;2.10;;;0.93;;
62941;SDS011;49042;47.318;19.874;2022-08-01T13:15:24;4.35;;;1.00;;
62941;SDS011;49042;47.318;19.874;2022-08-01T13:18:29;2.37;;;0.85;;
62941;SDS011;49042;47.318;19.874;2022-08-01T13:21:34;3.70;;;1.00;;
62941;SDS011;49042;47.318;19.874;2022-08-01T13:25:08;2.60;;;0.95;;
62941;SDS011;49042;47.318;19.874;2022-08-01T13:28:24;2.80;;;0.90;;
62941;SDS011;49042;47.318;19.874;2022-08-01T13:31:31;3.33;;;1.02;;
62941;SDS011;49042;47.318;19.874;2022-08-01T13:34:34;1.45;;;0.77;;
62941;SDS011;49042;47.318;19.874;2022-08-01T13:37:37;1.55;;;0.90;;
62941;SDS011;49042;47.318;19.874;2022-08-01T13:40:40;1.95;;;0.88;;
62941;SDS011;49042;47.318;19.874;2022-08-01T13:43:41;2.33;;;1.00;;
62941;SDS011;49042;47.318;19.874;2022-08-01T13:46:59;1.65;;;1.00;;
62941;SDS011;49042;47.318;19.874;2022-08-01T13:50:01;1.48;;;0.80;;
62941;SDS011;49042;47.318;19.874;2022-08-01T13:53:04;1.02;;;0.80;;
62941;SDS011;49042;47.318;19.874;2022-08-01T13:56:06;1.25;;;1.00;;
62941;SDS011;49042;47.318;19.874;2022-08-01T13:59:08;2.30;;;0.95;;
62941;SDS011;49042;47.318;19.874;2022-08-01T14:02:10;3.05;;;1.02;;
62941;SDS011;49042;47.318;19.874;2022-08-01T14:05:11;2.58;;;1.25;;
62941;SDS011;49042;47.318;19.874;2022-08-01T14:08:14;3.50;;;1.02;;
62941;SDS011;49042;47.318;19.874;2022-08-01T14:11:17;1.05;;;0.82;;
62941;SDS011;49042;47.318;19.874;2022-08-01T14:14:21;2.22;;;1.15;;
62941;SDS011;49042;47.318;19.874;2022-08-01T14:17:23;2.67;;;1.10;;
62941;SDS011;49042;47.318;19.874;2022-08-01T14:20:25;1.62;;;1.00;;
62941;SDS011;49042;47.318;19.874;2022-08-01T14:23:27;1.65;;;0.98;;
62941;SDS011;49042;47.318;19.874;2022-08-01T14:26:29;3.53;;;1.20;;
62941;SDS011;49042;47.318;19.874;2022-08-01T14:29:30;2.33;;;1.10;;
62941;SDS011;49042;47.318;19.874;2022-08-01T14:32:52;2.40;;;1.10;;
62941;SDS011;49042;47.318;19.874;2022-08-01T14:35:54;5.78;;;1.10;;
62941;SDS011;49042;47.318;19.874;2022-08-01T14:39:17;1.40;;;0.98;;
62941;SDS011;49042;47.318;19.874;2022-08-01T14:42:19;0.90;;;0.90;;
62941;SDS011;49042;47.318;19.874;2022-08-01T14:45:20;2.45;;;1.30;;
62941;SDS011;49042;47.318;19.874;2022-08-01T14:48:23;1.52;;;1.10;;
62941;SDS011;49042;47.318;19.874;2022-08-01T14:51:25;3.33;;;1.25;;
62941;SDS011;49042;47.318;19.874;2022-08-01T14:54:26;2.12;;;1.10;;
62941;SDS011;49042;47.318;19.874;2022-08-01T14:57:30;2.60;;;1.50;;
62941;SDS011;49042;47.318;19.874;2022-08-01T15:00:32;5.87;;;1.50;;
62941;SDS011;49042;47.318;19.874;2022-08-01T15:03:34;1.50;;;1.40;;
62941;SDS011;49042;47.318;19.874;2022-08-01T15:06:36;1.52;;;1.10;;
62941;SDS011;49042;47.318;19.874;2022-08-01T15:09:38;1.42;;;1.05;;
62941;SDS011;49042;47.318;19.874;2022-08-01T15:12:41;4.22;;;1.40;;
62941;SDS011;49042;47.318;19.874;2022-08-01T15:15:51;2.97;;;1.25;;
62941;SDS011;49042;47.318;19.874;2022-08-01T15:18:53;4.25;;;1.55;;
62941;SDS011;49042;47.318;19.874;2022-08-01T15:21:54;3.55;;;1.40;;
62941;SDS011;49042;47.318;19.874;2022-08-01T15:24:57;1.83;;;1.27;;
62941;SDS011;49042;47.318;19.874;2022-08-01T15:28:01;2.05;;;1.30;;
62941;SDS011;49042;47.318;19.874;2022-08-01T15:31:02;1.37;;;1.27;;
62941;SDS011;49042;47.318;19.874;2022-08-01T15:34:04;3.15;;;1.42;;
62941;SDS011;49042;47.318;19.874;2022-08-01T15:37:07;1.50;;;1.12;;
62941;SDS011;49042;47.318;19.874;2022-08-01T15:40:11;2.00;;;1.40;;
62941;SDS011;49042;47.318;19.874;2022-08-01T15:43:13;4.20;;;1.35;;
62941;SDS011;49042;47.318;19.874;2022-08-01T15:46:16;1.67;;;1.27;;
62941;SDS011;49042;47.318;19.874;2022-08-01T15:49:18;1.48;;;1.30;;
62941;SDS011;49042;47.318;19.874;2022-08-01T15:52:23;8.18;;;1.50;;
62941;SDS011;49042;47.318;19.874;2022-08-01T15:55:34;5.22;;;1.62;;
62941;SDS011;49042;47.318;19.874;2022-08-01T15:58:38;3.83;;;1.50;;
62941;SDS011;49042;47.318;19.874;2022-08-01T16:01:41;2.80;;;1.73;;
62941;SDS011;49042;47.318;19.874;2022-08-01T16:04:43;4.40;;;1.50;;
62941;SDS011;49042;47.318;19.874;2022-08-01T16:07:45;1.67;;;1.27;;
62941;SDS011;49042;47.318;19.874;2022-08-01T16:14:04;2.40;;;1.35;;
62941;SDS011;49042;47.318;19.874;2022-08-01T16:17:07;2.90;;;1.52;;
62941;SDS011;49042;47.318;19.874;2022-08-01T16:20:09;1.60;;;1.27;;
62941;SDS011;49042;47.318;19.874;2022-08-01T16:23:12;5.32;;;1.70;;
62941;SDS011;49042;47.318;19.874;2022-08-01T16:26:15;5.62;;;1.80;;
62941;SDS011;49042;47.318;19.874;2022-08-01T16:29:28;7.85;;;1.70;;
62941;SDS011;49042;47.318;19.874;2022-08-01T16:32:32;4.47;;;1.62;;
62941;SDS011;49042;47.318;19.874;2022-08-01T16:35:43;8.02;;;1.55;;
62941;SDS011;49042;47.318;19.874;2022-08-01T16:41:51;7.75;;;1.40;;
62941;SDS011;49042;47.318;19.874;2022-08-01T16:44:56;3.33;;;1.27;;
62941;SDS011;49042;47.318;19.874;2022-08-01T16:47:59;1.67;;;1.33;;
62941;SDS011;49042;47.318;19.874;2022-08-01T16:51:02;2.65;;;1.45;;
62941;SDS011;49042;47.318;19.874;2022-08-01T16:54:04;2.28;;;1.40;;
62941;SDS011;49042;47.318;19.874;2022-08-01T16:57:26;5.32;;;1.50;;
62941;SDS011;49042;47.318;19.874;2022-08-01T17:00:29;3.70;;;1.58;;
62941;SDS011;49042;47.318;19.874;2022-08-01T17:03:31;8.43;;;2.22;;
62941;SDS011;49042;47.318;19.874;2022-08-01T17:06:53;4.45;;;1.58;;
62941;SDS011;49042;47.318;19.874;2022-08-01T17:09:55;5.20;;;1.52;;
62941;SDS011;49042;47.318;19.874;2022-08-01T17:12:57;1.98;;;1.50;;
62941;SDS011;49042;47.318;19.874;2022-08-01T17:15:59;3.58;;;2.00;;
62941;SDS011;49042;47.318;19.874;2022-08-01T17:19:01;11.35;;;2.37;;
62941;SDS011;49042;47.318;19.874;2022-08-01T17:22:04;2.45;;;1.60;;
62941;SDS011;49042;47.318;19.874;2022-08-01T17:25:06;6.90;;;2.03;;
62941;SDS011;49042;47.318;19.874;2022-08-01T17:28:16;5.10;;;1.80;;
62941;SDS011;49042;47.318;19.874;2022-08-01T17:31:18;10.88;;;2.37;;
62941;SDS011;49042;47.318;19.874;2022-08-01T17:34:20;20.98;;;3.62;;
62941;SDS011;49042;47.318;19.874;2022-08-01T17:37:22;110.32;;;10.32;;
62941;SDS011;49042;47.318;19.874;2022-08-01T17:40:23;72.97;;;7.93;;
62941;SDS011;49042;47.318;19.874;2022-08-01T17:43:40;52.47;;;6.72;;
62941;SDS011;49042;47.318;19.874;2022-08-01T17:46:41;21.60;;;3.55;;
62941;SDS011;49042;47.318;19.874;2022-08-01T17:49:45;28.87;;;4.97;;
62941;SDS011;49042;47.318;19.874;2022-08-01T17:52:55;3.20;;;2.20;;
62941;SDS011;49042;47.318;19.874;2022-08-01T17:55:57;10.23;;;3.28;;
62941;SDS011;49042;47.318;19.874;2022-08-01T17:59:01;15.23;;;4.57;;
62941;SDS011;49042;47.318;19.874;2022-08-01T18:02:02;5.00;;;2.17;;
62941;SDS011;49042;47.318;19.874;2022-08-01T18:05:05;7.60;;;2.47;;
62941;SDS011;49042;47.318;19.874;2022-08-01T18:08:11;5.40;;;1.90;;
62941;SDS011;49042;47.318;19.874;2022-08-01T18:11:15;5.93;;;2.47;;
62941;SDS011;49042;47.318;19.874;2022-08-01T18:14:17;9.43;;;3.33;;
62941;SDS011;49042;47.318;19.874;2022-08-01T18:17:19;14.60;;;3.42;;
62941;SDS011;49042;47.318;19.874;2022-08-01T18:20:22;8.15;;;3.00;;
62941;SDS011;49042;47.318;19.874;2022-08-01T18:23:24;7.82;;;2.37;;
62941;SDS011;49042;47.318;19.874;2022-08-01T18:26:26;10.07;;;3.37;;
62941;SDS011;49042;47.318;19.874;2022-08-01T18:29:29;20.45;;;3.40;;
62941;SDS011;49042;47.318;19.874;2022-08-01T18:32:48;19.45;;;4.18;;
62941;SDS011;49042;47.318;19.874;2022-08-01T18:35:50;17.27;;;3.40;;
62941;SDS011;49042;47.318;19.874;2022-08-01T18:38:54;6.87;;;2.60;;
62941;SDS011;49042;47.318;19.874;2022-08-01T18:41:56;3.20;;;1.80;;
62941;SDS011;49042;47.318;19.874;2022-08-01T18:45:00;5.55;;;2.17;;
62941;SDS011;49042;47.318;19.874;2022-08-01T18:48:02;3.30;;;1.90;;
62941;SDS011;49042;47.318;19.874;2022-08-01T18:51:04;4.82;;;2.00;;